sensor_id;sensor_type;location;lat;lon;timestamp;pressure;altitude;pressure_sealevel;temperature;humidity
32081;BME280;18593;51.426;7.030;2023-05-02T00:01:50;100813.66;;;13.28;65.00
32081;BME280;18593;51.426;7.030;2023-05-02T00:04:18;100809.78;;;13.24;64.94
32081;BME280;18593;51.426;7.030;2023-05-02T00:06:46;100811.84;;;13.22;64.91
32081;BME280;18593;51.426;7.030;2023-05-02T00:09:13;100813.72;;;13.22;64.83
32081;BME280;18593;51.426;7.030;2023-05-02T00:11:42;100822.38;;;13.17;64.99
32081;BME280;18593;51.426;7.030;2023-05-02T00:14:09;100826.31;;;13.14;64.93
32081;BME280;18593;51.426;7.030;2023-05-02T00:16:36;100829.22;;;13.13;64.97
32081;BME280;18593;51.426;7.030;2023-05-02T00:19:04;100829.44;;;13.11;65.36
32081;BME280;18593;51.426;7.030;2023-05-02T00:21:31;100835.00;;;13.10;65.00
32081;BME280;18593;51.426;7.030;2023-05-02T00:23:58;100841.41;;;13.09;65.05
32081;BME280;18593;51.426;7.030;2023-05-02T00:26:26;100830.09;;;13.07;65.12
32081;BME280;18593;51.426;7.030;2023-05-02T00:28:55;100832.75;;;13.07;65.47
32081;BME280;18593;51.426;7.030;2023-05-02T00:31:22;100836.25;;;13.07;65.49
32081;BME280;18593;51.426;7.030;2023-05-02T00:33:49;100838.75;;;13.09;65.57
32081;BME280;18593;51.426;7.030;2023-05-02T00:36:18;100835.25;;;13.08;65.65
32081;BME280;18593;51.426;7.030;2023-05-02T00:38:45;100836.25;;;13.07;65.68
32081;BME280;18593;51.426;7.030;2023-05-02T00:41:13;100843.06;;;13.10;65.97
32081;BME280;18593;51.426;7.030;2023-05-02T00:43:40;100840.38;;;13.10;65.99
32081;BME280;18593;51.426;7.030;2023-05-02T00:46:09;100844.69;;;13.11;66.27
32081;BME280;18593;51.426;7.030;2023-05-02T00:48:38;100847.97;;;13.13;66.37
32081;BME280;18593;51.426;7.030;2023-05-02T00:51:05;100848.78;;;13.13;66.15
32081;BME280;18593;51.426;7.030;2023-05-02T00:53:34;100841.56;;;13.14;66.38
32081;BME280;18593;51.426;7.030;2023-05-02T00:56:02;100841.56;;;13.14;66.40
32081;BME280;18593;51.426;7.030;2023-05-02T00:58:29;100839.72;;;13.14;66.53
32081;BME280;18593;51.426;7.030;2023-05-02T01:01:16;100834.59;;;13.13;66.06
32081;BME280;18593;51.426;7.030;2023-05-02T01:04:00;100831.28;;;13.11;66.47
32081;BME280;18593;51.426;7.030;2023-05-02T01:06:46;100837.09;;;13.08;66.43
32081;BME280;18593;51.426;7.030;2023-05-02T01:09:33;100833.00;;;13.05;66.30
32081;BME280;18593;51.426;7.030;2023-05-02T01:12:09;100842.50;;;13.01;66.15
32081;BME280;18593;51.426;7.030;2023-05-02T01:14:44;100847.25;;;12.99;65.95
32081;BME280;18593;51.426;7.030;2023-05-02T01:17:14;100850.97;;;12.98;65.85
32081;BME280;18593;51.426;7.030;2023-05-02T01:19:53;100854.91;;;12.96;65.95
32081;BME280;18593;51.426;7.030;2023-05-02T01:22:24;100856.97;;;12.94;66.02
32081;BME280;18593;51.426;7.030;2023-05-02T01:25:07;100861.72;;;12.92;65.94
32081;BME280;18593;51.426;7.030;2023-05-02T01:27:46;100866.25;;;12.91;66.30
32081;BME280;18593;51.426;7.030;2023-05-02T01:30:19;100862.75;;;12.91;66.68
32081;BME280;18593;51.426;7.030;2023-05-02T01:32:48;100866.47;;;12.89;66.92
32081;BME280;18593;51.426;7.030;2023-05-02T01:35:16;100870.19;;;12.88;67.30
32081;BME280;18593;51.426;7.030;2023-05-02T01:37:45;100877.59;;;12.86;67.25
32081;BME280;18593;51.426;7.030;2023-05-02T01:40:16;100885.63;;;12.86;67.44
32081;BME280;18593;51.426;7.030;2023-05-02T01:42:46;100888.31;;;12.86;67.51
32081;BME280;18593;51.426;7.030;2023-05-02T01:45:15;100884.81;;;12.86;67.42
32081;BME280;18593;51.426;7.030;2023-05-02T01:47:44;100896.19;;;12.81;67.76
32081;BME280;18593;51.426;7.030;2023-05-02T01:50:18;100896.59;;;12.78;67.68
32081;BME280;18593;51.426;7.030;2023-05-02T01:52:47;100894.13;;;12.77;67.64
32081;BME280;18593;51.426;7.030;2023-05-02T01:55:17;100903.00;;;12.77;67.42
32081;BME280;18593;51.426;7.030;2023-05-02T01:57:46;100904.03;;;12.76;67.29
32081;BME280;18593;51.426;7.030;2023-05-02T02:00:16;100901.34;;;12.76;67.29
32081;BME280;18593;51.426;7.030;2023-05-02T02:02:47;100914.31;;;12.79;67.17
32081;BME280;18593;51.426;7.030;2023-05-02T02:05:15;100909.78;;;12.80;67.22
32081;BME280;18593;51.426;7.030;2023-05-02T02:07:44;100924.56;;;12.82;67.31
32081;BME280;18593;51.426;7.030;2023-05-02T02:10:12;100924.81;;;12.81;67.24
32081;BME280;18593;51.426;7.030;2023-05-02T02:12:42;100913.88;;;12.82;67.19
32081;BME280;18593;51.426;7.030;2023-05-02T02:15:17;100918.22;;;12.83;67.22
32081;BME280;18593;51.426;7.030;2023-05-02T02:17:52;100920.25;;;12.81;67.42
32081;BME280;18593;51.426;7.030;2023-05-02T02:20:21;100923.75;;;12.82;67.25
32081;BME280;18593;51.426;7.030;2023-05-02T02:22:49;100924.56;;;12.82;67.19
32081;BME280;18593;51.426;7.030;2023-05-02T02:25:17;100929.75;;;12.84;67.12
32081;BME280;18593;51.426;7.030;2023-05-02T02:27:45;100931.59;;;12.83;67.28
32081;BME280;18593;51.426;7.030;2023-05-02T02:30:13;100927.06;;;12.84;67.26
32081;BME280;18593;51.426;7.030;2023-05-02T02:32:41;100927.88;;;12.84;67.18
32081;BME280;18593;51.426;7.030;2023-05-02T02:35:10;100933.22;;;12.84;67.03
32081;BME280;18593;51.426;7.030;2023-05-02T02:37:43;100932.41;;;12.84;67.11
32081;BME280;18593;51.426;7.030;2023-05-02T02:40:20;100930.75;;;12.83;67.10
32081;BME280;18593;51.426;7.030;2023-05-02T02:43:00;100931.59;;;12.83;67.25
32081;BME280;18593;51.426;7.030;2023-05-02T02:45:34;100940.44;;;12.84;67.30
32081;BME280;18593;51.426;7.030;2023-05-02T02:48:15;100937.75;;;12.84;67.47
32081;BME280;18593;51.426;7.030;2023-05-02T02:50:57;100942.72;;;12.80;67.40
32081;BME280;18593;51.426;7.030;2023-05-02T02:53:33;100943.53;;;12.81;67.29
32081;BME280;18593;51.426;7.030;2023-05-02T02:56:05;100956.09;;;12.80;67.26
32081;BME280;18593;51.426;7.030;2023-05-02T02:58:50;100953.44;;;12.80;67.53
32081;BME280;18593;51.426;7.030;2023-05-02T03:01:23;100951.16;;;12.77;67.32
32081;BME280;18593;51.426;7.030;2023-05-02T03:03:51;100951.44;;;12.69;68.01
32081;BME280;18593;51.426;7.030;2023-05-02T03:06:20;100953.25;;;12.69;68.01
32081;BME280;18593;51.426;7.030;2023-05-02T03:08:49;100961.28;;;12.69;67.91
32081;BME280;18593;51.426;7.030;2023-05-02T03:11:18;100961.09;;;12.70;67.74
32081;BME280;18593;51.426;7.030;2023-05-02T03:13:46;100963.78;;;12.70;67.75
32081;BME280;18593;51.426;7.030;2023-05-02T03:16:33;100958.84;;;12.67;67.40
32081;BME280;18593;51.426;7.030;2023-05-02T03:19:04;100956.78;;;12.69;67.26
32081;BME280;18593;51.426;7.030;2023-05-02T03:21:34;100964.19;;;12.67;67.30
32081;BME280;18593;51.426;7.030;2023-05-02T03:24:09;100966.88;;;12.67;67.33
32081;BME280;18593;51.426;7.030;2023-05-02T03:26:36;100967.69;;;12.68;67.35
32081;BME280;18593;51.426;7.030;2023-05-02T03:29:06;100965.63;;;12.70;67.17
32081;BME280;18593;51.426;7.030;2023-05-02T03:31:38;100966.22;;;12.72;67.25
32081;BME280;18593;51.426;7.030;2023-05-02T03:34:05;100961.69;;;12.72;67.08
32081;BME280;18593;51.426;7.030;2023-05-02T03:36:35;100968.69;;;12.73;67.33
32081;BME280;18593;51.426;7.030;2023-05-02T03:39:02;100982.06;;;12.73;67.06
32081;BME280;18593;51.426;7.030;2023-05-02T03:41:29;100980.00;;;12.75;67.04
32081;BME280;18593;51.426;7.030;2023-05-02T03:44:03;100973.84;;;12.75;66.97
32081;BME280;18593;51.426;7.030;2023-05-02T03:46:31;100971.97;;;12.75;67.17
32081;BME280;18593;51.426;7.030;2023-05-02T03:48:58;100971.97;;;12.75;67.03
32081;BME280;18593;51.426;7.030;2023-05-02T03:51:25;100973.63;;;12.76;67.17
32081;BME280;18593;51.426;7.030;2023-05-02T03:53:56;100982.69;;;12.75;67.05
32081;BME280;18593;51.426;7.030;2023-05-02T03:56:25;100977.94;;;12.77;67.16
32081;BME280;18593;51.426;7.030;2023-05-02T03:59:13;100990.50;;;12.77;67.20
32081;BME280;18593;51.426;7.030;2023-05-02T04:01:41;100988.88;;;12.76;67.30
32081;BME280;18593;51.426;7.030;2023-05-02T04:04:10;100985.97;;;12.77;67.44
32081;BME280;18593;51.426;7.030;2023-05-02T04:06:44;100992.94;;;12.78;67.46
32081;BME280;18593;51.426;7.030;2023-05-02T04:09:13;100985.78;;;12.79;67.39
32081;BME280;18593;51.426;7.030;2023-05-02T04:11:48;100996.25;;;12.80;67.34
32081;BME280;18593;51.426;7.030;2023-05-02T04:14:15;100995.44;;;12.80;67.27
32081;BME280;18593;51.426;7.030;2023-05-02T04:16:47;101005.31;;;12.79;67.30
32081;BME280;18593;51.426;7.030;2023-05-02T04:19:17;101003.66;;;12.78;67.22
32081;BME280;18593;51.426;7.030;2023-05-02T04:21:45;101004.69;;;12.77;67.64
32081;BME280;18593;51.426;7.030;2023-05-02T04:24:15;101009.22;;;12.77;67.36
32081;BME280;18593;51.426;7.030;2023-05-02T04:26:42;101015.22;;;12.79;67.64
32081;BME280;18593;51.426;7.030;2023-05-02T04:29:11;101010.69;;;12.79;67.81
32081;BME280;18593;51.426;7.030;2023-05-02T04:31:39;101012.53;;;12.79;67.95
32081;BME280;18593;51.426;7.030;2023-05-02T04:34:06;101011.09;;;12.76;68.37
32081;BME280;18593;51.426;7.030;2023-05-02T04:36:40;101015.44;;;12.71;68.81
32081;BME280;18593;51.426;7.030;2023-05-02T04:39:11;101023.47;;;12.71;68.67
32081;BME280;18593;51.426;7.030;2023-05-02T04:41:47;101027.78;;;12.72;68.54
32081;BME280;18593;51.426;7.030;2023-05-02T04:44:15;101025.94;;;12.72;68.85
32081;BME280;18593;51.426;7.030;2023-05-02T04:46:43;101035.41;;;12.68;69.16
32081;BME280;18593;51.426;7.030;2023-05-02T04:49:11;101034.41;;;12.69;69.56
32081;BME280;18593;51.426;7.030;2023-05-02T04:51:38;101042.44;;;12.69;69.41
32081;BME280;18593;51.426;7.030;2023-05-02T04:54:06;101050.47;;;12.69;69.43
32081;BME280;18593;51.426;7.030;2023-05-02T04:56:34;101048.78;;;12.68;69.76
32081;BME280;18593;51.426;7.030;2023-05-02T04:59:02;101053.13;;;12.69;69.55
32081;BME280;18593;51.426;7.030;2023-05-02T05:01:31;101063.84;;;12.69;69.89
32081;BME280;18593;51.426;7.030;2023-05-02T05:04:00;101055.19;;;12.67;70.13
32081;BME280;18593;51.426;7.030;2023-05-02T05:06:28;101067.97;;;12.65;70.21
32081;BME280;18593;51.426;7.030;2023-05-02T05:08:56;101068.78;;;12.66;70.11
32081;BME280;18593;51.426;7.030;2023-05-02T05:11:24;101075.78;;;12.67;70.22
32081;BME280;18593;51.426;7.030;2023-05-02T05:13:55;101071.47;;;12.66;70.39
32081;BME280;18593;51.426;7.030;2023-05-02T05:16:25;101079.25;;;12.67;70.46
32081;BME280;18593;51.426;7.030;2023-05-02T05:18:54;101081.75;;;12.62;70.96
32081;BME280;18593;51.426;7.030;2023-05-02T05:21:21;101085.88;;;12.58;71.21
32081;BME280;18593;51.426;7.030;2023-05-02T05:23:49;101089.81;;;12.55;70.95
32081;BME280;18593;51.426;7.030;2023-05-02T05:26:23;101096.56;;;12.58;70.97
32081;BME280;18593;51.426;7.030;2023-05-02T05:28:51;101095.53;;;12.59;71.08
32081;BME280;18593;51.426;7.030;2023-05-02T05:31:20;101104.59;;;12.58;71.04
32081;BME280;18593;51.426;7.030;2023-05-02T05:33:54;101104.59;;;12.58;70.85
32081;BME280;18593;51.426;7.030;2023-05-02T05:36:22;101116.94;;;12.59;70.82
32081;BME280;18593;51.426;7.030;2023-05-02T05:38:50;101114.06;;;12.54;70.90
32081;BME280;18593;51.426;7.030;2023-05-02T05:41:18;101122.94;;;12.54;70.95
32081;BME280;18593;51.426;7.030;2023-05-02T05:43:50;101121.50;;;12.52;70.60
32081;BME280;18593;51.426;7.030;2023-05-02T05:46:17;101125.19;;;12.51;70.37
32081;BME280;18593;51.426;7.030;2023-05-02T05:48:45;101126.84;;;12.52;70.22
32081;BME280;18593;51.426;7.030;2023-05-02T05:51:14;101126.03;;;12.51;70.00
32081;BME280;18593;51.426;7.030;2023-05-02T05:53:41;101124.38;;;12.50;69.72
32081;BME280;18593;51.426;7.030;2023-05-02T05:56:11;101133.84;;;12.53;69.54
32081;BME280;18593;51.426;7.030;2023-05-02T05:58:44;101135.47;;;12.54;69.40
32081;BME280;18593;51.426;7.030;2023-05-02T06:01:13;101146.81;;;12.56;69.24
32081;BME280;18593;51.426;7.030;2023-05-02T06:03:40;101149.50;;;12.56;69.34
32081;BME280;18593;51.426;7.030;2023-05-02T06:06:08;101151.13;;;12.57;69.33
32081;BME280;18593;51.426;7.030;2023-05-02T06:08:36;101152.97;;;12.56;69.15
32081;BME280;18593;51.426;7.030;2023-05-02T06:11:08;101159.16;;;12.57;69.04
32081;BME280;18593;51.426;7.030;2023-05-02T06:13:36;101156.47;;;12.57;68.84
32081;BME280;18593;51.426;7.030;2023-05-02T06:16:05;101164.50;;;12.57;68.49
32081;BME280;18593;51.426;7.030;2023-05-02T06:18:32;101156.69;;;12.55;68.17
32081;BME280;18593;51.426;7.030;2023-05-02T06:21:03;101165.53;;;12.56;68.37
32081;BME280;18593;51.426;7.030;2023-05-02T06:23:30;101166.16;;;12.58;68.06
32081;BME280;18593;51.426;7.030;2023-05-02T06:26:00;101178.31;;;12.60;68.37
32081;BME280;18593;51.426;7.030;2023-05-02T06:28:28;101178.69;;;12.57;67.00
32081;BME280;18593;51.426;7.030;2023-05-02T06:30:58;101180.78;;;12.55;67.03
32081;BME280;18593;51.426;7.030;2023-05-02T06:33:26;101189.41;;;12.57;67.08
32081;BME280;18593;51.426;7.030;2023-05-02T06:35:53;101187.56;;;12.58;66.76
32081;BME280;18593;51.426;7.030;2023-05-02T06:38:21;101196.81;;;12.62;67.56
32081;BME280;18593;51.426;7.030;2023-05-02T06:40:49;101200.94;;;12.65;67.76
32081;BME280;18593;51.426;7.030;2023-05-02T06:43:18;101192.69;;;12.66;66.33
32081;BME280;18593;51.426;7.030;2023-05-02T06:45:45;101202.59;;;12.66;66.73
32081;BME280;18593;51.426;7.030;2023-05-02T06:48:13;101207.72;;;12.67;66.60
32081;BME280;18593;51.426;7.030;2023-05-02T06:50:40;101208.13;;;12.71;67.02
32081;BME280;18593;51.426;7.030;2023-05-02T06:53:07;101217.81;;;12.72;66.34
32081;BME280;18593;51.426;7.030;2023-05-02T06:55:35;101220.69;;;12.70;65.40
32081;BME280;18593;51.426;7.030;2023-05-02T06:58:02;101215.13;;;12.72;65.28
32081;BME280;18593;51.426;7.030;2023-05-02T07:00:30;101223.81;;;12.74;65.16
32081;BME280;18593;51.426;7.030;2023-05-02T07:02:58;101224.41;;;12.76;65.09
32081;BME280;18593;51.426;7.030;2023-05-02T07:05:25;101229.34;;;12.79;65.13
32081;BME280;18593;51.426;7.030;2023-05-02T07:07:52;101229.34;;;12.79;64.96
32081;BME280;18593;51.426;7.030;2023-05-02T07:10:19;101234.28;;;12.75;64.32
32081;BME280;18593;51.426;7.030;2023-05-02T07:12:46;101235.09;;;12.76;64.80
32081;BME280;18593;51.426;7.030;2023-05-02T07:15:13;101235.94;;;12.76;64.00
32081;BME280;18593;51.426;7.030;2023-05-02T07:17:42;101238.81;;;12.75;63.91
32081;BME280;18593;51.426;7.030;2023-05-02T07:20:12;101247.88;;;12.74;64.11
32081;BME280;18593;51.426;7.030;2023-05-02T07:22:40;101247.88;;;12.74;64.16
32081;BME280;18593;51.426;7.030;2023-05-02T07:25:08;101249.72;;;12.73;63.57
32081;BME280;18593;51.426;7.030;2023-05-02T07:27:35;101251.38;;;12.68;63.53
32081;BME280;18593;51.426;7.030;2023-05-02T07:30:04;101257.16;;;12.65;63.94
32081;BME280;18593;51.426;7.030;2023-05-02T07:32:31;101281.22;;;12.65;64.37
32081;BME280;18593;51.426;7.030;2023-05-02T07:35:00;101266.78;;;12.59;64.35
32081;BME280;18593;51.426;7.030;2023-05-02T07:37:32;101281.00;;;12.53;63.70
32081;BME280;18593;51.426;7.030;2023-05-02T07:40:00;101285.31;;;12.47;63.49
32081;BME280;18593;51.426;7.030;2023-05-02T07:42:31;101288.19;;;12.46;63.57
32081;BME280;18593;51.426;7.030;2023-05-02T07:44:58;101287.78;;;12.42;63.21
32081;BME280;18593;51.426;7.030;2023-05-02T07:47:25;101293.94;;;12.36;63.72
32081;BME280;18593;51.426;7.030;2023-05-02T07:49:54;101307.94;;;12.31;63.95
32081;BME280;18593;51.426;7.030;2023-05-02T07:52:23;101308.97;;;12.30;64.34
32081;BME280;18593;51.426;7.030;2023-05-02T07:54:51;101312.03;;;12.27;64.18
32081;BME280;18593;51.426;7.030;2023-05-02T07:57:18;101316.34;;;12.28;64.61
32081;BME280;18593;51.426;7.030;2023-05-02T07:59:45;101318.19;;;12.28;64.42
32081;BME280;18593;51.426;7.030;2023-05-02T08:02:13;101322.72;;;12.27;64.67
32081;BME280;18593;51.426;7.030;2023-05-02T08:04:42;101321.25;;;12.25;64.47
32081;BME280;18593;51.426;7.030;2023-05-02T08:07:09;101334.47;;;12.26;64.25
32081;BME280;18593;51.426;7.030;2023-05-02T08:09:38;101333.00;;;12.24;64.20
32081;BME280;18593;51.426;7.030;2023-05-02T08:12:05;101332.16;;;12.17;63.77
32081;BME280;18593;51.426;7.030;2023-05-02T08:14:32;101332.53;;;12.07;63.17
32081;BME280;18593;51.426;7.030;2023-05-02T08:17:00;101331.88;;;12.05;63.17
32081;BME280;18593;51.426;7.030;2023-05-02T08:19:27;101342.41;;;12.06;63.45
32081;BME280;18593;51.426;7.030;2023-05-02T08:21:54;101347.94;;;12.05;63.17
32081;BME280;18593;51.426;7.030;2023-05-02T08:24:21;101347.13;;;12.04;62.33
32081;BME280;18593;51.426;7.030;2023-05-02T08:26:50;101356.38;;;12.02;62.91
32081;BME280;18593;51.426;7.030;2023-05-02T08:29:17;101349.16;;;12.02;62.73
32081;BME280;18593;51.426;7.030;2023-05-02T08:31:44;101359.47;;;12.05;63.33
32081;BME280;18593;51.426;7.030;2023-05-02T08:34:12;101359.28;;;12.07;63.17
32081;BME280;18593;51.426;7.030;2023-05-02T08:36:39;101361.28;;;12.05;62.45
32081;BME280;18593;51.426;7.030;2023-05-02T08:39:06;101370.19;;;12.05;62.72
32081;BME280;18593;51.426;7.030;2023-05-02T08:41:34;101373.47;;;12.07;63.09
32081;BME280;18593;51.426;7.030;2023-05-02T08:44:05;101384.53;;;12.04;62.95
32081;BME280;18593;51.426;7.030;2023-05-02T08:46:35;101390.09;;;12.03;63.25
32081;BME280;18593;51.426;7.030;2023-05-02T08:49:02;101397.06;;;11.97;62.97
32081;BME280;18593;51.426;7.030;2023-05-02T08:51:32;101396.63;;;11.94;63.19
32081;BME280;18593;51.426;7.030;2023-05-02T08:54:02;101405.47;;;11.94;63.32
32081;BME280;18593;51.426;7.030;2023-05-02T08:56:29;101404.03;;;11.92;63.88
32081;BME280;18593;51.426;7.030;2023-05-02T08:58:58;101409.75;;;11.89;63.85
32081;BME280;18593;51.426;7.030;2023-05-02T09:01:29;101412.63;;;11.87;63.78
32081;BME280;18593;51.426;7.030;2023-05-02T09:03:57;101419.19;;;11.84;63.40
32081;BME280;18593;51.426;7.030;2023-05-02T09:06:25;101423.22;;;11.80;63.19
32081;BME280;18593;51.426;7.030;2023-05-02T09:08:54;101426.31;;;11.77;63.26
32081;BME280;18593;51.426;7.030;2023-05-02T09:11:25;101436.78;;;11.72;62.76
32081;BME280;18593;51.426;7.030;2023-05-02T09:13:52;101431.81;;;11.69;62.90
32081;BME280;18593;51.426;7.030;2023-05-02T09:16:21;101435.28;;;11.70;62.89
32081;BME280;18593;51.426;7.030;2023-05-02T09:18:53;101433.44;;;11.70;63.18
32081;BME280;18593;51.426;7.030;2023-05-02T09:21:22;101444.34;;;11.69;62.90
32081;BME280;18593;51.426;7.030;2023-05-02T09:23:52;101440.84;;;11.68;62.59
32081;BME280;18593;51.426;7.030;2023-05-02T09:26:22;101445.41;;;11.74;63.53
32081;BME280;18593;51.426;7.030;2023-05-02T09:28:51;101452.00;;;11.78;63.57
32081;BME280;18593;51.426;7.030;2023-05-02T09:31:21;101453.03;;;11.77;62.55
32081;BME280;18593;51.426;7.030;2023-05-02T09:33:52;101459.59;;;11.75;62.99
32081;BME280;18593;51.426;7.030;2023-05-02T09:36:20;101451.78;;;11.73;61.92
32081;BME280;18593;51.426;7.030;2023-05-02T09:38:49;101464.50;;;11.71;62.40
32081;BME280;18593;51.426;7.030;2023-05-02T09:41:16;101465.13;;;11.73;62.38
32081;BME280;18593;51.426;7.030;2023-05-02T09:43:54;101474.34;;;11.71;62.23
32081;BME280;18593;51.426;7.030;2023-05-02T09:46:22;101472.25;;;11.66;61.52
32081;BME280;18593;51.426;7.030;2023-05-02T09:48:55;101478.00;;;11.63;62.23
32081;BME280;18593;51.426;7.030;2023-05-02T09:51:24;101475.34;;;11.63;61.62
32081;BME280;18593;51.426;7.030;2023-05-02T09:53:52;101478.25;;;11.68;62.14
32081;BME280;18593;51.426;7.030;2023-05-02T09:56:19;101490.22;;;11.72;61.88
32081;BME280;18593;51.426;7.030;2023-05-02T09:58:47;101493.91;;;11.71;60.60
32081;BME280;18593;51.426;7.030;2023-05-02T10:01:14;101491.25;;;11.71;60.53
32081;BME280;18593;51.426;7.030;2023-05-02T10:03:46;101502.09;;;11.70;59.53
32081;BME280;18593;51.426;7.030;2023-05-02T10:06:17;101494.03;;;11.63;59.30
32081;BME280;18593;51.426;7.030;2023-05-02T10:08:45;101488.13;;;11.68;60.26
32081;BME280;18593;51.426;7.030;2023-05-02T10:11:13;101491.50;;;11.76;60.44
32081;BME280;18593;51.426;7.030;2023-05-02T10:13:43;101492.59;;;11.82;60.06
32081;BME280;18593;51.426;7.030;2023-05-02T10:16:12;101491.22;;;11.93;61.08
32081;BME280;18593;51.426;7.030;2023-05-02T10:18:51;101490.63;;;11.97;58.94
32081;BME280;18593;51.426;7.030;2023-05-02T10:21:26;101490.50;;;12.05;58.75
32081;BME280;18593;51.426;7.030;2023-05-02T10:23:54;101482.28;;;12.14;58.83
32081;BME280;18593;51.426;7.030;2023-05-02T10:26:22;101484.41;;;12.25;58.82
32081;BME280;18593;51.426;7.030;2023-05-02T10:28:50;101482.41;;;12.33;58.64
32081;BME280;18593;51.426;7.030;2023-05-02T10:31:18;101482.25;;;12.42;58.48
32081;BME280;18593;51.426;7.030;2023-05-02T10:33:47;101479.59;;;12.48;57.47
32081;BME280;18593;51.426;7.030;2023-05-02T10:36:20;101481.28;;;12.56;56.96
32081;BME280;18593;51.426;7.030;2023-05-02T10:38:50;101475.13;;;12.62;57.46
32081;BME280;18593;51.426;7.030;2023-05-02T10:41:21;101476.19;;;12.68;56.70
32081;BME280;18593;51.426;7.030;2023-05-02T10:43:52;101474.16;;;12.76;56.88
32081;BME280;18593;51.426;7.030;2023-05-02T10:46:29;101481.16;;;12.77;55.95
32081;BME280;18593;51.426;7.030;2023-05-02T10:49:03;101485.09;;;12.81;56.19
32081;BME280;18593;51.426;7.030;2023-05-02T10:51:31;101483.00;;;12.70;53.12
32081;BME280;18593;51.426;7.030;2023-05-02T10:54:19;101479.91;;;12.67;54.67
32081;BME280;18593;51.426;7.030;2023-05-02T10:57:06;101486.06;;;12.67;54.86
32081;BME280;18593;51.426;7.030;2023-05-02T10:59:36;101477.59;;;12.63;54.15
32081;BME280;18593;51.426;7.030;2023-05-02T11:02:04;101474.53;;;12.60;54.47
32081;BME280;18593;51.426;7.030;2023-05-02T11:05:00;101487.91;;;12.60;54.64
32081;BME280;18593;51.426;7.030;2023-05-02T11:07:29;101484.41;;;12.59;53.84
32081;BME280;18593;51.426;7.030;2023-05-02T11:10:27;101491.34;;;12.54;54.25
32081;BME280;18593;51.426;7.030;2023-05-02T11:12:55;101492.81;;;12.56;54.77
32081;BME280;18593;51.426;7.030;2023-05-02T11:15:54;101499.38;;;12.54;53.64
32081;BME280;18593;51.426;7.030;2023-05-02T11:18:24;101495.72;;;12.55;54.26
32081;BME280;18593;51.426;7.030;2023-05-02T11:20:52;101494.47;;;12.57;54.52
32081;BME280;18593;51.426;7.030;2023-05-02T11:23:39;101503.31;;;12.58;53.52
32081;BME280;18593;51.426;7.030;2023-05-02T11:26:21;101506.81;;;12.58;52.64
32081;BME280;18593;51.426;7.030;2023-05-02T11:28:48;101511.16;;;12.59;52.33
32081;BME280;18593;51.426;7.030;2023-05-02T11:32:01;101509.72;;;12.63;53.13
32081;BME280;18593;51.426;7.030;2023-05-02T11:34:41;101508.50;;;12.66;52.42
32081;BME280;18593;51.426;7.030;2023-05-02T11:37:13;101506.88;;;12.65;50.85
32081;BME280;18593;51.426;7.030;2023-05-02T11:39:41;101496.34;;;12.63;51.03
32081;BME280;18593;51.426;7.030;2023-05-02T11:42:10;101497.41;;;12.69;52.51
32081;BME280;18593;51.426;7.030;2023-05-02T11:44:57;101495.34;;;12.71;50.65
32081;BME280;18593;51.426;7.030;2023-05-02T11:47:25;101504.84;;;12.74;50.56
32081;BME280;18593;51.426;7.030;2023-05-02T11:49:54;101498.03;;;12.78;51.04
32081;BME280;18593;51.426;7.030;2023-05-02T11:52:22;101504.47;;;12.83;51.16
32081;BME280;18593;51.426;7.030;2023-05-02T11:54:53;101508.19;;;12.89;50.77
32081;BME280;18593;51.426;7.030;2023-05-02T11:57:22;101509.03;;;12.96;50.41
32081;BME280;18593;51.426;7.030;2023-05-02T11:59:51;101512.75;;;13.02;50.04
32081;BME280;18593;51.426;7.030;2023-05-02T12:02:19;101510.06;;;13.02;49.35
32081;BME280;18593;51.426;7.030;2023-05-02T12:04:47;101505.97;;;13.06;48.85
32081;BME280;18593;51.426;7.030;2023-05-02T12:07:14;101510.72;;;13.10;48.50
32081;BME280;18593;51.426;7.030;2023-05-02T12:09:50;101519.41;;;13.19;48.10
32081;BME280;18593;51.426;7.030;2023-05-02T12:12:19;101517.34;;;13.21;48.60
32081;BME280;18593;51.426;7.030;2023-05-02T12:14:48;101523.53;;;13.22;47.90
32081;BME280;18593;51.426;7.030;2023-05-02T12:17:16;101525.00;;;13.24;48.16
32081;BME280;18593;51.426;7.030;2023-05-02T12:19:43;101520.00;;;13.21;46.95
32081;BME280;18593;51.426;7.030;2023-05-02T12:22:11;101528.06;;;13.21;46.64
32081;BME280;18593;51.426;7.030;2023-05-02T12:24:42;101525.16;;;13.16;46.54
32081;BME280;18593;51.426;7.030;2023-05-02T12:27:11;101525.75;;;13.11;45.63
32081;BME280;18593;51.426;7.030;2023-05-02T12:29:40;101531.31;;;13.10;46.98
32081;BME280;18593;51.426;7.030;2023-05-02T12:32:09;101537.50;;;13.17;47.78
32081;BME280;18593;51.426;7.030;2023-05-02T12:34:37;101530.38;;;13.24;48.10
32081;BME280;18593;51.426;7.030;2023-05-02T12:37:12;101548.31;;;13.30;46.99
32081;BME280;18593;51.426;7.030;2023-05-02T12:40:44;101540.47;;;13.35;47.50
32081;BME280;18593;51.426;7.030;2023-05-02T12:43:12;101542.56;;;13.40;47.58
32081;BME280;18593;51.426;7.030;2023-05-02T12:45:39;101544.63;;;13.45;47.05
32081;BME280;18593;51.426;7.030;2023-05-02T12:48:23;101544.44;;;13.53;47.54
32081;BME280;18593;51.426;7.030;2023-05-02T12:50:58;101551.06;;;13.57;45.95
32081;BME280;18593;51.426;7.030;2023-05-02T12:53:39;101548.38;;;13.57;45.21
32081;BME280;18593;51.426;7.030;2023-05-02T12:56:07;101544.88;;;13.63;44.85
32081;BME280;18593;51.426;7.030;2023-05-02T12:58:43;101553.72;;;13.63;44.56
32081;BME280;18593;51.426;7.030;2023-05-02T13:01:11;101552.25;;;13.61;44.60
32081;BME280;18593;51.426;7.030;2023-05-02T13:03:42;101571.03;;;13.61;45.44
32081;BME280;18593;51.426;7.030;2023-05-02T13:06:17;101567.34;;;13.62;43.60
32081;BME280;18593;51.426;7.030;2023-05-02T13:08:46;101562.16;;;13.60;44.17